createdAt,value
2022-09-20T00:01:13.977Z,101382.06
2022-09-20T00:03:43.818Z,101383.22
2022-09-20T00:06:13.441Z,101378.78
2022-09-20T00:08:41.326Z,101378.78
2022-09-20T00:11:10.765Z,101380.75
2022-09-20T00:13:39.094Z,101381.59
2022-09-20T00:16:11.031Z,101378.28
2022-09-20T00:18:38.706Z,101372.69
2022-09-20T00:21:05.942Z,101377.13
2022-09-20T00:23:33.829Z,101376.94
2022-09-20T00:26:02.200Z,101369.91
2022-09-20T00:28:29.723Z,101365.50
2022-09-20T00:30:56.938Z,101365.50
2022-09-20T00:33:45.398Z,101370.25
2022-09-20T00:36:12.765Z,101377.47
2022-09-20T00:38:39.372Z,101380.56
2022-09-20T00:41:06.073Z,101379.09
2022-09-20T00:43:40.936Z,101371.06
2022-09-20T00:46:22.732Z,101377.28
2022-09-20T00:48:53.408Z,101386.75
2022-09-20T00:51:32.879Z,101380.38
2022-09-20T00:54:02.713Z,101382.84
2022-09-20T00:56:36.638Z,101377.28
2022-09-20T00:59:27.666Z,101373.66
2022-09-20T01:02:00.000Z,101377.91
2022-09-20T01:04:28.665Z,101368.72
2022-09-20T01:06:59.465Z,101365.13
2022-09-20T01:09:26.419Z,101367.28
2022-09-20T01:11:56.275Z,101372.00
2022-09-20T01:14:25.477Z,101376.78
2022-09-20T01:16:56.207Z,101376.25
2022-09-20T01:19:58.171Z,101375.41
2022-09-20T01:22:57.343Z,101368.44
2022-09-20T01:25:36.681Z,101372.63
2022-09-20T01:28:03.542Z,101371.00
2022-09-20T01:30:43.902Z,101376.88
2022-09-20T01:33:23.120Z,101366.56
2022-09-20T01:35:53.046Z,101371.53
2022-09-20T01:38:45.906Z,101367.38
2022-09-20T01:41:20.581Z,101372.13
2022-09-20T01:44:03.893Z,101365.72
2022-09-20T01:46:36.377Z,101369.66
2022-09-20T01:49:18.229Z,101368.84
2022-09-20T01:52:15.750Z,101360.97
2022-09-20T01:55:16.604Z,101378.53
2022-09-20T01:57:57.406Z,101379.16
2022-09-20T02:00:26.016Z,101376.38
2022-09-20T02:03:13.292Z,101378.31
2022-09-20T02:06:04.801Z,101370.31
2022-09-20T02:08:44.206Z,101374.22
2022-09-20T02:11:19.730Z,101365.56
2022-09-20T02:14:06.090Z,101373.38
2022-09-20T02:16:39.663Z,101364.53
2022-09-20T02:19:21.001Z,101377.34
2022-09-20T02:22:16.855Z,101372.56
2022-09-20T02:24:52.391Z,101374.22
2022-09-20T02:28:03.233Z,101372.56
2022-09-20T02:31:09.581Z,101366.19
2022-09-20T02:34:03.516Z,101365.38
2022-09-20T02:36:38.991Z,101363.06
2022-09-20T02:39:15.848Z,101363.56
2022-09-20T02:42:11.199Z,101358.00
2022-09-20T02:44:58.176Z,101355.22
2022-09-20T02:47:38.317Z,101349.50
2022-09-20T02:50:12.815Z,101348.66
2022-09-20T02:52:51.189Z,101345.88
2022-09-20T02:55:26.784Z,101349.50
2022-09-20T02:58:11.296Z,101347.84
2022-09-20T03:00:54.132Z,101351.75
2022-09-20T03:03:46.702Z,101344.56
2022-09-20T03:06:37.521Z,101351.44
2022-09-20T03:09:30.122Z,101362.09
2022-09-20T03:12:05.382Z,101358.16
2022-09-20T03:14:54.120Z,101357.31
2022-09-20T03:17:48.864Z,101352.56
2022-09-20T03:20:26.569Z,101360.09
2022-09-20T03:23:10.965Z,101365.38
2022-09-20T03:25:47.295Z,101363.22
2022-09-20T03:28:31.968Z,101358.63
2022-09-20T03:31:01.463Z,101358.16
2022-09-20T03:33:43.228Z,101358.97
2022-09-20T03:36:32.892Z,101366.00
2022-09-20T03:39:27.291Z,101372.41
2022-09-20T03:42:17.901Z,101369.28
2022-09-20T03:44:59.549Z,101365.19
2022-09-20T03:48:10.947Z,101365.19
2022-09-20T03:50:40.421Z,101366.00
2022-09-20T03:53:28.300Z,101364.16
2022-09-20T03:56:06.836Z,101366.63
2022-09-20T03:58:51.859Z,101359.09
2022-09-20T04:01:28.022Z,101366.63
2022-09-20T04:04:11.807Z,101360.44
2022-09-20T04:07:04.090Z,101358.16
2022-09-20T04:09:49.720Z,101363.22
2022-09-20T04:12:59.558Z,101361.91
2022-09-20T04:15:36.216Z,101373.03
2022-09-20T04:18:17.079Z,101368.91
2022-09-20T04:20:51.025Z,101363.34
2022-09-20T04:23:53.942Z,101359.41
2022-09-20T04:26:27.695Z,101361.69
2022-09-20T04:29:31.173Z,101359.41
2022-09-20T04:31:57.760Z,101353.84
2022-09-20T04:34:51.516Z,101358.28
2022-09-20T04:37:33.021Z,101358.91
2022-09-20T04:40:13.953Z,101366.63
2022-09-20T04:42:59.067Z,101363.34
2022-09-20T04:46:04.752Z,101364.97
2022-09-20T04:49:10.558Z,101372.19
2022-09-20T04:52:18.601Z,101373.34
2022-09-20T04:55:13.293Z,101374.50
2022-09-20T04:58:04.657Z,101375.47
2022-09-20T05:01:04.437Z,101375.28
2022-09-20T05:24:44.999Z,101396.06
2022-09-20T05:30:46.928Z,101395.72
2022-09-20T05:33:51.084Z,101399.66
2022-09-20T05:36:23.009Z,101400.47
2022-09-20T05:39:03.516Z,101409.66
2022-09-20T05:41:42.365Z,101414.09
2022-09-20T05:44:21.635Z,101419.81
2022-09-20T05:47:06.540Z,101408.75
2022-09-20T05:49:47.463Z,101411.19
2022-09-20T05:52:44.414Z,101405.22
2022-09-20T05:55:23.189Z,101418.00
2022-09-20T05:58:01.803Z,101418.00
2022-09-20T06:00:54.286Z,101405.84
2022-09-20T06:03:21.526Z,101409.78
2022-09-20T06:05:47.959Z,101406.47
2022-09-20T06:08:49.497Z,101413.69
2022-09-20T06:11:51.460Z,101420.91
2022-09-20T06:14:25.305Z,101420.09
2022-09-20T06:17:07.095Z,101415.34
2022-09-20T06:20:09.864Z,101434.31
2022-09-20T06:22:47.224Z,101434.22
2022-09-20T06:25:41.170Z,101432.03
2022-09-20T06:28:17.380Z,101434.00
2022-09-20T06:30:51.680Z,101424.69
2022-09-20T06:33:26.936Z,101440.91
2022-09-20T06:36:26.877Z,101430.41
2022-09-20T06:39:36.323Z,101432.56
2022-09-20T06:42:03.437Z,101433.97
2022-09-20T06:44:30.446Z,101437.28
2022-09-20T06:46:57.251Z,101435.38
2022-09-20T06:49:24.241Z,101440.03
2022-09-20T06:51:51.219Z,101442.69
2022-09-20T06:54:20.932Z,101441.06
2022-09-20T06:56:50.720Z,101438.63
2022-09-20T06:59:17.266Z,101433.38
2022-09-20T07:01:44.779Z,101443.41
2022-09-20T07:04:11.452Z,101445.56
2022-09-20T07:06:38.161Z,101445.06
2022-09-20T07:09:05.536Z,101435.44
2022-09-20T07:11:34.053Z,101454.94
2022-09-20T07:14:01.085Z,101441.84
2022-09-20T07:16:27.915Z,101446.09
2022-09-20T07:18:54.769Z,101447.09
2022-09-20T07:21:21.933Z,101451.66
2022-09-20T07:23:49.112Z,101440.38
2022-09-20T07:26:19.818Z,101449.69
2022-09-20T07:28:46.921Z,101452.66
2022-09-20T07:31:13.732Z,101450.47
2022-09-20T07:33:40.621Z,101454.84
2022-09-20T07:36:07.734Z,101454.22
2022-09-20T07:38:34.291Z,101453.19
2022-09-20T07:41:02.444Z,101458.47
2022-09-20T07:43:30.481Z,101457.78
2022-09-20T07:45:59.347Z,101465.50
2022-09-20T07:48:33.086Z,101464.97
2022-09-20T07:51:08.429Z,101464.63
2022-09-20T07:53:36.006Z,101466.88
2022-09-20T07:56:11.821Z,101474.75
2022-09-20T07:58:38.881Z,101475.56
2022-09-20T08:01:08.274Z,101478.34
2022-09-20T08:03:35.783Z,101475.56
2022-09-20T08:06:05.637Z,101473.13
2022-09-20T08:08:33.591Z,101482.47
2022-09-20T08:11:06.481Z,101485.25
2022-09-20T08:16:28.984Z,101489.56
2022-09-20T08:18:58.839Z,101492.22
2022-09-20T08:21:28.070Z,101497.34
2022-09-20T08:23:55.052Z,101496.50
2022-09-20T08:26:24.767Z,101499.78
2022-09-20T08:28:53.718Z,101499.53
2022-09-20T08:31:22.740Z,101505.47
2022-09-20T08:33:50.952Z,101503.75
2022-09-20T08:36:20.777Z,101501.94
2022-09-20T08:41:43.096Z,101507.84
2022-09-20T08:44:25.988Z,101519.47
2022-09-20T08:47:13.998Z,101504.59
2022-09-20T08:49:45.795Z,101502.94
2022-09-20T08:52:25.144Z,101508.97
2022-09-20T08:54:51.753Z,101512.59
2022-09-20T08:57:20.855Z,101512.94
2022-09-20T08:59:48.369Z,101514.38
2022-09-20T09:02:20.824Z,101509.56
2022-09-20T09:04:49.384Z,101510.50
2022-09-20T09:07:20.940Z,101513.09
2022-09-20T09:09:51.915Z,101526.41
2022-09-20T09:12:28.892Z,101520.66
2022-09-20T09:15:18.057Z,101516.50
2022-09-20T09:17:44.929Z,101514.88
2022-09-20T09:20:14.562Z,101521.09
2022-09-20T09:22:44.093Z,101519.78
2022-09-20T09:25:23.228Z,101520.06
2022-09-20T09:28:03.442Z,101525.66
2022-09-20T09:30:33.322Z,101518.44
2022-09-20T09:33:25.099Z,101519.06
2022-09-20T09:36:16.370Z,101515.47
2022-09-20T09:38:45.763Z,101513.50
2022-09-20T09:41:25.308Z,101508.56
2022-09-20T09:44:03.169Z,101508.56
2022-09-20T09:46:34.604Z,101499.69
2022-09-20T09:49:15.883Z,101496.91
2022-09-20T09:52:04.170Z,101494.31
2022-09-20T09:54:37.279Z,101490.53
2022-09-20T09:57:45.643Z,101495.47
2022-09-20T10:00:22.071Z,101496.06
2022-09-20T10:03:03.994Z,101489.13
2022-09-20T10:05:55.408Z,101478.47
2022-09-20T10:08:40.229Z,101481.00
2022-09-20T10:11:25.704Z,101477.03
2022-09-20T10:13:55.099Z,101477.22
2022-09-20T10:16:33.639Z,101476.94
2022-09-20T10:19:22.592Z,101482.34
2022-09-20T10:22:08.337Z,101482.72
2022-09-20T10:24:51.133Z,101474.06
2022-09-20T10:27:55.844Z,101465.88
2022-09-20T10:30:25.634Z,101475.22
2022-09-20T10:33:33.067Z,101483.91
2022-09-20T10:36:05.533Z,101483.13
2022-09-20T10:38:41.529Z,101488.50
2022-09-20T10:42:04.561Z,101488.50
2022-09-20T10:44:54.199Z,101480.69
2022-09-20T10:47:34.461Z,101475.13
2022-09-20T10:50:07.726Z,101485.44
2022-09-20T10:53:03.443Z,101481.50
2022-09-20T10:55:47.869Z,101487.72
2022-09-20T10:58:39.380Z,101484.81
2022-09-20T11:01:33.690Z,101482.50
2022-09-20T11:04:29.374Z,101480.84
2022-09-20T11:07:04.944Z,101485.28
2022-09-20T11:09:38.786Z,101481.84
2022-09-20T11:12:21.219Z,101484.16
2022-09-20T11:15:17.201Z,101487.72
2022-09-20T11:18:01.546Z,101487.56
2022-09-20T11:20:33.473Z,101493.88
2022-09-20T11:23:08.908Z,101487.44
2022-09-20T11:25:53.320Z,101491.22
2022-09-20T11:28:30.904Z,101489.59
2022-09-20T11:31:24.873Z,101489.59
2022-09-20T11:33:58.073Z,101488.31
2022-09-20T11:36:24.957Z,101487.28
2022-09-20T11:38:57.774Z,101487.94
2022-09-20T11:41:29.623Z,101488.75
2022-09-20T11:44:06.920Z,101489.59
2022-09-20T11:46:52.350Z,101482.34
2022-09-20T11:49:45.716Z,101491.69
2022-09-20T11:52:15.136Z,101485.78
2022-09-20T11:55:10.862Z,101493.78
2022-09-20T11:57:38.176Z,101487.88
2022-09-20T12:00:08.321Z,101483.16
2022-09-20T12:02:52.969Z,101483.81
2022-09-20T12:05:37.217Z,101481.47
2022-09-20T12:08:27.462Z,101483.78
2022-09-20T12:11:10.188Z,101482.78
2022-09-20T12:13:40.120Z,101482.28
2022-09-20T12:16:12.986Z,101487.84
2022-09-20T12:18:54.763Z,101482.09
2022-09-20T12:21:22.003Z,101487.84
2022-09-20T12:23:57.686Z,101491.59
2022-09-20T12:26:27.073Z,101489.97
2022-09-20T12:28:55.111Z,101489.13
2022-09-20T12:31:21.861Z,101488.31
2022-09-20T12:34:15.971Z,101491.41
2022-09-20T12:36:46.580Z,101489.75
2022-09-20T12:39:16.223Z,101488.63
2022-09-20T12:41:58.778Z,101493.19
2022-09-20T12:44:43.796Z,101488.75
2022-09-20T12:47:13.152Z,101492.69
2022-09-20T12:50:04.578Z,101490.41
2022-09-20T12:52:52.494Z,101489.28
2022-09-20T12:55:45.498Z,101488.75
2022-09-20T12:58:12.087Z,101486.59
2022-09-20T13:00:50.444Z,101494.97
2022-09-20T13:03:29.390Z,101492.41
2022-09-20T13:06:11.976Z,101490.22
2022-09-20T13:08:52.533Z,101498.22
2022-09-20T13:11:19.312Z,101494.59
2022-09-20T13:14:13.648Z,101497.91
2022-09-20T13:16:52.912Z,101497.94
2022-09-20T13:19:21.077Z,101497.84
2022-09-20T13:22:01.246Z,101490.22
2022-09-20T13:24:32.393Z,101498.72
2022-09-20T13:27:06.849Z,101506.09
2022-09-20T13:29:40.390Z,101503.31
2022-09-20T13:32:26.426Z,101499.19
2022-09-20T13:35:15.618Z,101503.94
2022-09-20T13:37:45.001Z,101495.88
2022-09-20T13:40:35.668Z,101493.44
2022-09-20T13:43:23.549Z,101499.84
2022-09-20T13:45:59.726Z,101502.09
2022-09-20T13:48:28.395Z,101495.72
2022-09-20T13:50:56.717Z,101496.38
2022-09-20T13:53:40.719Z,101496.38
2022-09-20T13:56:22.904Z,101496.38
2022-09-20T13:58:51.319Z,101493.56
2022-09-20T14:01:32.310Z,101494.22
2022-09-20T14:04:07.287Z,101493.03
2022-09-20T14:06:34.874Z,101497.00
2022-09-20T14:09:10.466Z,101491.72
2022-09-20T14:11:39.125Z,101493.03
2022-09-20T14:14:08.034Z,101496.16
2022-09-20T14:16:39.737Z,101501.75
2022-09-20T14:19:08.277Z,101489.75
2022-09-20T14:21:37.791Z,101498.13
2022-09-20T14:24:22.453Z,101489.75
2022-09-20T14:27:06.875Z,101488.94
2022-09-20T14:29:41.708Z,101492.06
2022-09-20T14:32:17.606Z,101488.09
2022-09-20T14:34:47.038Z,101489.56
2022-09-20T14:37:17.157Z,101482.03
2022-09-20T14:40:06.350Z,101492.06
2022-09-20T14:42:40.664Z,101493.19
2022-09-20T14:45:16.573Z,101489.91
2022-09-20T14:48:10.848Z,101489.38
2022-09-20T14:50:44.127Z,101491.53
2022-09-20T14:53:13.434Z,101490.22
2022-09-20T14:55:42.259Z,101493.88
2022-09-20T14:58:14.525Z,101491.50
2022-09-20T15:00:50.494Z,101487.94
2022-09-20T15:03:24.438Z,101489.13
2022-09-20T15:05:51.297Z,101489.69
2022-09-20T15:08:19.780Z,101480.34
2022-09-20T15:10:47.340Z,101482.69
2022-09-20T15:13:14.840Z,101481.84
2022-09-20T15:15:42.176Z,101485.09
2022-09-20T15:18:27.250Z,101489.38
2022-09-20T15:20:55.077Z,101486.28
2022-09-20T15:23:22.256Z,101483.00
2022-09-20T15:25:54.562Z,101483.31
2022-09-20T15:28:21.672Z,101488.72
2022-09-20T15:30:50.762Z,101484.09
2022-09-20T15:33:19.221Z,101493.25
2022-09-20T15:35:46.660Z,101486.47
2022-09-20T15:38:14.089Z,101484.50
2022-09-20T15:40:46.187Z,101488.91
2022-09-20T15:43:19.549Z,101481.72
2022-09-20T15:45:51.771Z,101485.63
2022-09-20T15:48:21.282Z,101478.25
2022-09-20T15:51:02.799Z,101476.94
2022-09-20T15:53:31.856Z,101474.13
2022-09-20T15:56:02.574Z,101480.34
2022-09-20T15:58:35.610Z,101488.72
2022-09-20T16:01:07.989Z,101475.41
2022-09-20T16:03:36.137Z,101477.88
2022-09-20T16:06:05.898Z,101478.84
2022-09-20T16:08:34.872Z,101472.09
2022-09-20T16:11:02.241Z,101477.53
2022-09-20T16:13:29.217Z,101484.72
2022-09-20T16:16:00.871Z,101488.19
2022-09-20T16:18:49.546Z,101484.66
2022-09-20T16:21:18.794Z,101485.38
2022-09-20T16:23:49.153Z,101483.78
2022-09-20T16:26:16.477Z,101490.88
2022-09-20T16:28:47.470Z,101486.78
2022-09-20T16:31:34.761Z,101493.34
2022-09-20T16:34:19.349Z,101485.16
2022-09-20T16:36:47.777Z,101488.47
2022-09-20T16:39:16.477Z,101484.03
2022-09-20T16:41:45.339Z,101485.53
2022-09-20T16:44:13.240Z,101487.50
2022-09-20T16:46:40.218Z,101484.72
2022-09-20T16:49:13.404Z,101485.19
2022-09-20T16:51:42.304Z,101493.09
2022-09-20T16:54:14.155Z,101493.09
2022-09-20T16:56:46.387Z,101499.69
2022-09-20T16:59:15.783Z,101495.88
2022-09-20T17:01:43.172Z,101493.09
2022-09-20T17:04:13.391Z,101500.66
2022-09-20T17:06:43.124Z,101493.75
2022-09-20T17:09:10.044Z,101496.53
2022-09-20T17:11:42.510Z,101503.41
2022-09-20T17:14:09.652Z,101503.09
2022-09-20T17:16:39.023Z,101507.34
2022-09-20T17:19:07.428Z,101500.94
2022-09-20T17:21:36.428Z,101507.00
2022-09-20T17:24:05.147Z,101504.22
2022-09-20T17:26:33.874Z,101512.25
2022-09-20T17:29:02.548Z,101513.56
2022-09-20T17:31:33.627Z,101514.50
2022-09-20T17:34:02.211Z,101515.81
2022-09-20T17:36:31.971Z,101515.63
2022-09-20T17:39:04.211Z,101525.81
2022-09-20T17:41:31.352Z,101519.56
2022-09-20T17:43:59.644Z,101524.13
2022-09-20T17:46:31.531Z,101529.41
2022-09-20T17:49:05.518Z,101521.69
2022-09-20T17:51:36.735Z,101529.72
2022-09-20T17:54:03.864Z,101540.53
2022-09-20T17:56:31.334Z,101545.09
2022-09-20T17:59:00.184Z,101544.09
2022-09-20T18:01:28.090Z,101545.25
2022-09-20T18:03:56.567Z,101543.72
2022-09-20T18:06:26.834Z,101546.00
2022-09-20T18:08:59.298Z,101541.06
2022-09-20T18:11:31.904Z,101548.09
2022-09-20T18:13:59.571Z,101550.91
2022-09-20T18:16:26.557Z,101550.69
2022-09-20T18:18:53.652Z,101554.63
2022-09-20T18:21:22.981Z,101550.19
2022-09-20T18:23:51.062Z,101554.97
2022-09-20T18:26:30.108Z,101562.00
2022-09-20T18:29:00.200Z,101554.75
2022-09-20T18:31:36.084Z,101568.22
2022-09-20T18:34:17.628Z,101570.47
2022-09-20T18:36:48.419Z,101572.44
2022-09-20T18:39:15.107Z,101571.09
2022-09-20T18:41:42.749Z,101564.41
2022-09-20T18:44:14.507Z,101573.41
2022-09-20T18:46:41.590Z,101568.66
2022-09-20T18:49:09.698Z,101576.53
2022-09-20T18:51:40.007Z,101584.69
2022-09-20T18:54:11.591Z,101581.91
2022-09-20T18:56:46.307Z,101590.25
2022-09-20T18:59:25.074Z,101592.22
2022-09-20T19:01:57.938Z,101591.72
2022-09-20T19:04:36.580Z,101588.75
2022-09-20T19:07:21.836Z,101588.41
2022-09-20T19:09:57.543Z,101592.66
2022-09-20T19:13:01.268Z,101594.94
2022-09-20T19:15:47.025Z,101594.94
2022-09-20T19:18:24.333Z,101597.22
2022-09-20T19:21:28.875Z,101590.81
2022-09-20T19:24:22.721Z,101601.97
2022-09-20T19:26:49.889Z,101596.41
2022-09-20T19:29:20.945Z,101597.53
2022-09-20T19:31:49.623Z,101604.25
2022-09-20T19:34:21.968Z,101607.34
2022-09-20T19:36:58.111Z,101608.47
2022-09-20T19:39:45.858Z,101606.66
2022-09-20T19:42:14.111Z,101609.50
2022-09-20T19:45:10.330Z,101611.53
2022-09-20T19:47:50.094Z,101616.22
2022-09-20T19:50:37.187Z,101618.25
2022-09-20T19:53:04.894Z,101624.72
2022-09-20T19:55:32.865Z,101626.88
2022-09-20T19:57:59.853Z,101622.63
2022-09-20T20:00:26.828Z,101619.00
2022-09-20T20:02:54.401Z,101628.25
2022-09-20T20:05:27.469Z,101625.94
2022-09-20T20:08:13.057Z,101630.53
2022-09-20T20:11:04.437Z,101638.75
2022-09-20T20:13:59.309Z,101636.47
2022-09-20T20:17:03.098Z,101641.78
2022-09-20T20:19:48.107Z,101640.78
2022-09-20T20:22:48.987Z,101641.41
2022-09-20T20:25:47.101Z,101644.84
2022-09-20T20:28:14.102Z,101644.34
2022-09-20T20:30:40.903Z,101647.19
2022-09-20T20:33:08.111Z,101649.38
2022-09-20T20:35:34.910Z,101649.22
2022-09-20T20:38:05.945Z,101653.13
2022-09-20T20:40:32.928Z,101654.13
2022-09-20T20:43:02.043Z,101654.31
2022-09-20T20:45:29.863Z,101663.81
2022-09-20T20:47:59.522Z,101659.53
2022-09-20T20:50:27.110Z,101662.31
2022-09-20T20:52:55.643Z,101663.63
2022-09-20T20:55:23.713Z,101666.31
2022-09-20T20:57:58.030Z,101673.28
2022-09-20T21:00:28.136Z,101677.44
2022-09-20T21:03:01.784Z,101671.72
2022-09-20T21:05:29.310Z,101680.72
2022-09-20T21:07:57.830Z,101682.81
2022-09-20T21:10:24.878Z,101684.91
2022-09-20T21:12:54.850Z,101679.97
2022-09-20T21:15:21.495Z,101683.16
2022-09-20T21:17:54.940Z,101687.06
2022-09-20T21:20:22.416Z,101681.00
2022-09-20T21:22:49.204Z,101684.75
2022-09-20T21:25:15.944Z,101680.94
2022-09-20T21:27:42.849Z,101679.47
2022-09-20T21:30:10.016Z,101676.81
2022-09-20T21:32:36.855Z,101684.69
2022-09-20T21:35:03.801Z,101683.66
2022-09-20T21:37:30.632Z,101688.41
2022-09-20T21:39:57.660Z,101685.41
2022-09-20T21:42:27.241Z,101692.16
2022-09-20T21:44:53.868Z,101691.94
2022-09-20T21:47:20.761Z,101698.66
2022-09-20T21:49:47.655Z,101691.25
2022-09-20T21:52:14.311Z,101695.16
2022-09-20T21:54:41.068Z,101691.88
2022-09-20T21:57:07.947Z,101691.38
2022-09-20T21:59:34.546Z,101695.28
2022-09-20T22:02:01.191Z,101698.38
2022-09-20T22:04:28.957Z,101689.22
2022-09-20T22:06:55.645Z,101694.25
2022-09-20T22:09:24.169Z,101696.53
2022-09-20T22:11:50.893Z,101689.63
2022-09-20T22:14:19.788Z,101693.88
2022-09-20T22:16:48.333Z,101688.28
2022-09-20T22:19:18.068Z,101692.22
2022-09-20T22:21:47.991Z,101701.72
2022-09-20T22:24:15.958Z,101691.22
2022-09-20T22:26:50.956Z,101697.91
2022-09-20T22:29:18.528Z,101693.47
2022-09-20T22:31:47.285Z,101690.66
2022-09-20T22:34:19.858Z,101695.75
2022-09-20T22:36:47.616Z,101699.97
2022-09-20T22:39:15.095Z,101692.44
2022-09-20T22:41:42.883Z,101692.44
2022-09-20T22:44:10.796Z,101698.31
2022-09-20T22:46:39.618Z,101690.59
2022-09-20T22:49:08.529Z,101688.13
2022-09-20T22:51:36.432Z,101694.53
2022-09-20T22:54:09.006Z,101692.66
2022-09-20T22:56:37.089Z,101698.22
2022-09-20T22:59:06.625Z,101702.16
2022-09-20T23:01:39.633Z,101706.09
2022-09-20T23:04:11.978Z,101701.63
2022-09-20T23:06:51.914Z,101702.78
2022-09-20T23:09:19.040Z,101701.13
2022-09-20T23:11:46.808Z,101696.19
2022-09-20T23:14:16.336Z,101692.28
2022-09-20T23:16:43.861Z,101700.09
2022-09-20T23:19:11.348Z,101696.81
2022-09-20T23:21:39.537Z,101692.06
2022-09-20T23:24:08.785Z,101690.41
2022-09-20T23:26:37.670Z,101691.56
2022-09-20T23:29:11.282Z,101684.00
2022-09-20T23:31:39.784Z,101685.78
2022-09-20T23:34:07.968Z,101696.59
2022-09-20T23:36:38.097Z,101694.13
2022-09-20T23:39:07.125Z,101686.91
2022-09-20T23:41:34.271Z,101685.28
2022-09-20T23:44:01.321Z,101687.53
2022-09-20T23:46:28.115Z,101686.69
2022-09-20T23:48:54.994Z,101682.28
2022-09-20T23:51:24.168Z,101692.25
2022-09-20T23:53:52.335Z,101685.34
2022-09-20T23:56:20.436Z,101683.41
2022-09-20T23:58:48.767Z,101686.47
